createdAt,value
2018-09-20T00:02:04.122Z,13.45
2018-09-20T00:04:33.116Z,10.68
2018-09-20T00:07:01.791Z,11.75
2018-09-20T00:09:30.662Z,11.83
2018-09-20T00:11:59.580Z,10.72
2018-09-20T00:14:28.443Z,9.88
2018-09-20T00:16:57.574Z,10.45
2018-09-20T00:19:26.465Z,10.15
2018-09-20T00:21:55.331Z,12.88
2018-09-20T00:24:24.208Z,12.45
2018-09-20T00:26:53.140Z,10.25
2018-09-20T00:29:22.031Z,9.58
2018-09-20T00:31:51.128Z,14.03
2018-09-20T00:34:19.916Z,9.65
2018-09-20T00:36:49.114Z,10.78
2018-09-20T00:39:18.208Z,11.55
2018-09-20T00:41:47.099Z,14.20
2018-09-20T00:44:16.090Z,12.95
2018-09-20T00:46:45.183Z,12.60
2018-09-20T00:49:13.977Z,13.62
2018-09-20T00:51:42.799Z,10.65
2018-09-20T00:54:11.767Z,13.48
2018-09-20T00:56:40.746Z,12.33
2018-09-20T00:59:09.633Z,11.10
2018-09-20T01:01:38.505Z,12.70
2018-09-20T01:04:07.620Z,11.73
2018-09-20T01:06:36.365Z,10.63
2018-09-20T01:09:08.268Z,12.15
2018-09-20T01:11:37.147Z,12.07
2018-09-20T01:14:06.149Z,13.18
2018-09-20T01:16:35.083Z,9.98
2018-09-20T01:19:04.197Z,10.58
2018-09-20T01:21:33.436Z,8.38
2018-09-20T01:24:02.223Z,13.38
2018-09-20T01:26:31.111Z,11.20
2018-09-20T01:29:00.002Z,8.60
2018-09-20T01:31:28.804Z,9.65
2018-09-20T01:33:57.784Z,7.97
2018-09-20T01:36:26.508Z,7.45
2018-09-20T01:38:55.357Z,7.80
2018-09-20T01:41:23.939Z,9.73
2018-09-20T01:43:52.626Z,8.00
2018-09-20T01:46:21.355Z,9.73
2018-09-20T01:48:50.042Z,8.30
2018-09-20T01:51:18.783Z,12.28
2018-09-20T01:53:47.673Z,8.63
2018-09-20T01:56:16.870Z,11.53
2018-09-20T01:58:46.550Z,8.78
2018-09-20T02:01:15.421Z,8.23
2018-09-20T02:03:44.297Z,8.30
2018-09-20T02:06:13.029Z,7.60
2018-09-20T02:08:41.833Z,9.78
2018-09-20T02:11:42.572Z,7.33
2018-09-20T02:14:11.422Z,7.55
2018-09-20T02:16:39.795Z,7.55
2018-09-20T02:19:08.166Z,8.05
2018-09-20T02:21:36.525Z,12.35
2018-09-20T02:24:04.909Z,7.92
2018-09-20T02:26:33.270Z,8.70
2018-09-20T02:29:01.639Z,8.70
2018-09-20T02:31:30.009Z,10.82
2018-09-20T02:33:58.426Z,12.90
2018-09-20T02:36:26.773Z,12.53
2018-09-20T02:38:55.211Z,10.93
2018-09-20T02:41:23.578Z,10.55
2018-09-20T02:43:51.976Z,9.20
2018-09-20T02:46:20.371Z,8.70
2018-09-20T02:48:48.790Z,12.00
2018-09-20T02:51:17.138Z,8.80
2018-09-20T02:53:45.535Z,10.08
2018-09-20T02:56:13.916Z,11.08
2018-09-20T02:58:42.286Z,10.03
2018-09-20T03:01:10.647Z,12.58
2018-09-20T03:03:39.029Z,10.53
2018-09-20T03:06:07.433Z,10.68
2018-09-20T03:08:35.815Z,8.98
2018-09-20T03:11:04.204Z,10.00
2018-09-20T03:13:32.634Z,11.18
2018-09-20T03:16:01.051Z,10.23
2018-09-20T03:18:29.486Z,9.45
2018-09-20T03:20:57.942Z,11.10
2018-09-20T03:23:26.375Z,10.10
2018-09-20T03:25:54.796Z,10.35
2018-09-20T03:28:23.238Z,12.07
2018-09-20T03:30:51.778Z,11.60
2018-09-20T03:33:20.131Z,9.85
2018-09-20T03:35:48.510Z,11.63
2018-09-20T03:38:16.949Z,11.38
2018-09-20T03:40:45.338Z,12.23
2018-09-20T03:43:13.716Z,11.45
2018-09-20T03:45:42.117Z,11.25
2018-09-20T03:48:10.488Z,10.78
2018-09-20T03:50:38.990Z,9.80
2018-09-20T03:53:07.330Z,14.15
2018-09-20T03:55:35.736Z,11.33
2018-09-20T03:58:04.222Z,11.73
2018-09-20T04:00:32.805Z,11.30
2018-09-20T04:03:01.378Z,14.25
2018-09-20T04:05:29.799Z,10.53
2018-09-20T04:07:58.186Z,10.38
2018-09-20T04:10:26.603Z,12.20
2018-09-20T04:12:55.078Z,10.60
2018-09-20T04:15:24.271Z,10.98
2018-09-20T04:17:52.634Z,10.45
2018-09-20T04:20:21.035Z,11.50
2018-09-20T04:22:49.418Z,11.60
2018-09-20T04:25:17.819Z,11.43
2018-09-20T04:27:46.294Z,12.35
2018-09-20T04:30:14.681Z,10.88
2018-09-20T04:32:43.102Z,9.73
2018-09-20T04:35:11.609Z,13.88
2018-09-20T04:37:39.989Z,12.63
2018-09-20T04:40:08.404Z,10.50
2018-09-20T04:42:36.766Z,12.73
2018-09-20T04:45:06.368Z,10.75
2018-09-20T04:47:34.752Z,12.20
2018-09-20T04:50:03.218Z,14.43
2018-09-20T04:52:31.597Z,12.28
2018-09-20T04:55:00.009Z,14.50
2018-09-20T04:57:28.374Z,14.05
2018-09-20T04:59:56.799Z,13.55
2018-09-20T05:02:25.122Z,12.95
2018-09-20T05:04:53.526Z,12.05
2018-09-20T05:07:21.951Z,13.40
2018-09-20T05:09:50.357Z,12.20
2018-09-20T05:12:18.887Z,13.10
2018-09-20T05:14:47.593Z,14.35
2018-09-20T05:17:15.987Z,12.65
2018-09-20T05:19:44.418Z,15.63
2018-09-20T05:22:12.862Z,14.73
2018-09-20T05:24:41.267Z,17.35
2018-09-20T05:27:09.672Z,12.00
2018-09-20T05:29:38.091Z,12.58
2018-09-20T05:32:06.473Z,12.00
2018-09-20T05:34:41.478Z,13.18
2018-09-20T05:37:09.922Z,15.35
2018-09-20T05:39:38.743Z,14.78
2018-09-20T05:42:07.232Z,15.72
2018-09-20T05:44:35.818Z,12.68
2018-09-20T05:47:04.313Z,13.53
2018-09-20T05:49:32.734Z,14.55
2018-09-20T05:52:01.155Z,16.10
2018-09-20T05:54:29.586Z,14.68
2018-09-20T05:56:58.011Z,18.57
2018-09-20T05:59:26.456Z,19.23
2018-09-20T06:01:55.536Z,25.82
2018-09-20T06:04:24.005Z,16.32
2018-09-20T06:06:52.407Z,15.75
2018-09-20T06:09:20.855Z,13.88
2018-09-20T06:11:49.282Z,15.83
2018-09-20T06:14:17.751Z,17.57
2018-09-20T06:16:46.272Z,16.07
2018-09-20T06:19:14.679Z,14.80
2018-09-20T06:21:43.587Z,17.73
2018-09-20T06:24:12.012Z,15.53
2018-09-20T06:26:40.414Z,19.73
2018-09-20T06:29:08.814Z,25.55
2018-09-20T06:31:38.779Z,18.75
2018-09-20T06:34:07.223Z,13.40
2018-09-20T06:36:35.656Z,18.23
2018-09-20T06:39:06.373Z,15.85
2018-09-20T06:41:34.801Z,19.80
2018-09-20T06:44:03.210Z,16.00
2018-09-20T06:46:31.646Z,19.23
2018-09-20T06:49:00.037Z,15.35
2018-09-20T06:51:28.482Z,18.02
2018-09-20T06:53:57.155Z,16.77
2018-09-20T06:56:26.127Z,13.20
2018-09-20T06:58:54.557Z,10.60
2018-09-20T07:01:23.016Z,11.08
2018-09-20T07:03:51.395Z,17.05
2018-09-20T07:06:19.899Z,18.02
2018-09-20T07:08:48.343Z,13.98
2018-09-20T07:11:17.077Z,17.02
2018-09-20T07:13:45.561Z,10.65
2018-09-20T07:16:14.020Z,16.80
2018-09-20T07:18:42.557Z,12.78
2018-09-20T07:21:11.330Z,12.30
2018-09-20T07:23:40.322Z,13.43
2018-09-20T07:26:08.748Z,12.20
2018-09-20T07:28:37.162Z,15.28
2018-09-20T07:31:05.900Z,11.83
2018-09-20T07:33:34.348Z,13.22
2018-09-20T07:36:02.903Z,12.33
2018-09-20T07:38:31.750Z,12.85
2018-09-20T07:41:00.110Z,12.05
2018-09-20T07:43:28.588Z,9.70
2018-09-20T07:45:56.982Z,12.13
2018-09-20T07:48:25.421Z,9.08
2018-09-20T07:50:54.033Z,10.93
2018-09-20T07:53:22.500Z,11.28
2018-09-20T07:55:50.989Z,15.32
2018-09-20T07:58:19.755Z,13.08
2018-09-20T08:00:48.350Z,11.83
2018-09-20T08:03:16.742Z,10.43
2018-09-20T08:05:45.155Z,12.98
2018-09-20T08:08:13.693Z,9.58
2018-09-20T08:10:42.191Z,9.83
2018-09-20T08:13:10.676Z,12.90
2018-09-20T08:15:39.163Z,9.35
2018-09-20T08:18:07.936Z,9.88
2018-09-20T08:20:36.350Z,14.38
2018-09-20T08:23:04.896Z,9.60
2018-09-20T08:25:33.405Z,11.05
2018-09-20T08:28:02.755Z,11.60
2018-09-20T08:30:31.162Z,9.38
2018-09-20T08:32:59.667Z,8.33
2018-09-20T08:35:28.184Z,14.35
2018-09-20T08:37:56.784Z,10.55
2018-09-20T08:40:25.402Z,9.50
2018-09-20T08:42:53.855Z,8.00
2018-09-20T08:45:22.639Z,8.90
2018-09-20T08:47:51.331Z,8.23
2018-09-20T08:50:19.818Z,9.03
2018-09-20T08:52:48.450Z,9.33
2018-09-20T08:55:17.198Z,10.32
2018-09-20T08:57:52.178Z,11.73
2018-09-20T09:00:20.851Z,11.22
2018-09-20T09:02:49.403Z,11.85
2018-09-20T09:05:17.853Z,7.45
2018-09-20T09:07:46.414Z,8.73
2018-09-20T09:10:14.935Z,9.10
2018-09-20T09:12:43.554Z,11.63
2018-09-20T09:15:12.161Z,10.30
2018-09-20T09:17:40.621Z,7.50
2018-09-20T09:20:09.187Z,7.97
2018-09-20T09:22:37.653Z,10.15
2018-09-20T09:25:06.523Z,11.95
2018-09-20T09:27:35.127Z,9.53
2018-09-20T09:30:03.653Z,9.80
2018-09-20T09:32:32.224Z,7.00
2018-09-20T09:35:00.670Z,12.15
2018-09-20T09:37:29.195Z,10.78
2018-09-20T09:39:57.630Z,11.68
2018-09-20T09:42:26.161Z,6.70
2018-09-20T09:44:54.615Z,12.30
2018-09-20T09:47:23.145Z,10.05
2018-09-20T09:49:51.669Z,17.67
2018-09-20T09:52:20.172Z,10.45
2018-09-20T09:54:48.655Z,9.33
2018-09-20T09:57:17.067Z,10.70
2018-09-20T09:59:45.541Z,8.78
2018-09-20T10:02:13.934Z,9.10
2018-09-20T10:04:42.380Z,12.68
2018-09-20T10:07:10.823Z,8.55
2018-09-20T10:09:39.361Z,11.93
2018-09-20T10:12:07.811Z,13.00
2018-09-20T10:14:36.252Z,8.88
2018-09-20T10:17:04.743Z,11.20
2018-09-20T10:19:33.142Z,6.83
2018-09-20T10:22:01.595Z,6.55
2018-09-20T10:24:29.963Z,10.08
2018-09-20T10:26:58.377Z,10.25
2018-09-20T10:29:26.970Z,9.33
2018-09-20T10:31:55.381Z,8.45
2018-09-20T10:34:23.821Z,8.68
2018-09-20T10:36:52.220Z,9.03
2018-09-20T10:39:20.643Z,8.20
2018-09-20T10:41:49.055Z,9.93
2018-09-20T10:44:17.439Z,8.60
2018-09-20T10:46:45.842Z,9.13
2018-09-20T10:49:14.231Z,11.22
2018-09-20T10:51:42.637Z,17.25
2018-09-20T10:54:10.996Z,10.45
2018-09-20T10:56:39.354Z,7.40
2018-09-20T10:59:07.747Z,11.08
2018-09-20T11:01:36.157Z,11.80
2018-09-20T11:04:04.632Z,6.92
2018-09-20T11:06:33.002Z,8.80
2018-09-20T11:09:01.478Z,6.20
2018-09-20T11:11:29.889Z,7.72
2018-09-20T11:13:58.342Z,5.30
2018-09-20T11:16:26.812Z,8.63
2018-09-20T11:18:55.306Z,10.25
2018-09-20T11:21:23.722Z,7.30
2018-09-20T11:23:52.131Z,6.65
2018-09-20T11:26:21.339Z,7.78
2018-09-20T11:28:49.901Z,7.45
2018-09-20T11:31:18.464Z,7.67
2018-09-20T11:33:46.902Z,5.92
2018-09-20T11:36:15.357Z,8.00
2018-09-20T11:38:43.788Z,11.63
2018-09-20T11:41:12.224Z,8.58
2018-09-20T11:43:40.745Z,5.60
2018-09-20T11:46:09.159Z,6.28
2018-09-20T11:48:37.634Z,5.70
2018-09-20T11:51:06.062Z,6.60
2018-09-20T11:53:34.506Z,5.97
2018-09-20T11:56:03.276Z,6.33
2018-09-20T11:58:31.723Z,5.05
2018-09-20T12:01:00.142Z,5.30
2018-09-20T12:03:28.546Z,6.72
2018-09-20T12:05:56.967Z,7.72
2018-09-20T12:08:25.538Z,5.83
2018-09-20T12:10:54.086Z,6.90
2018-09-20T12:13:22.549Z,4.70
2018-09-20T12:15:50.961Z,7.47
2018-09-20T12:18:19.376Z,5.12
2018-09-20T12:20:47.806Z,3.60
2018-09-20T12:23:16.304Z,6.37
2018-09-20T12:25:45.011Z,3.85
2018-09-20T12:28:13.376Z,5.60
2018-09-20T12:30:41.808Z,6.03
2018-09-20T12:33:10.228Z,6.35
2018-09-20T12:35:38.861Z,6.65
2018-09-20T12:38:07.217Z,7.20
2018-09-20T12:40:35.666Z,5.72
2018-09-20T12:43:04.189Z,6.55
2018-09-20T12:45:32.555Z,6.15
2018-09-20T12:48:00.967Z,4.87
2018-09-20T12:50:29.359Z,6.40
2018-09-20T12:52:57.829Z,5.40
2018-09-20T12:55:26.348Z,6.10
2018-09-20T12:57:54.853Z,3.77
2018-09-20T13:00:23.271Z,6.95
2018-09-20T13:02:51.760Z,7.62
2018-09-20T13:05:20.282Z,4.55
2018-09-20T13:07:48.727Z,8.40
2018-09-20T13:10:17.224Z,5.20
2018-09-20T13:12:45.625Z,6.70
2018-09-20T13:15:14.298Z,9.65
2018-09-20T13:17:42.717Z,3.47
2018-09-20T13:20:11.289Z,4.15
2018-09-20T13:22:40.342Z,4.97
2018-09-20T13:25:08.775Z,4.42
2018-09-20T13:27:37.227Z,4.37
2018-09-20T13:30:05.673Z,4.15
2018-09-20T13:32:34.084Z,5.87
2018-09-20T13:35:02.527Z,5.15
2018-09-20T13:37:30.914Z,5.62
2018-09-20T13:39:59.423Z,3.50
2018-09-20T13:42:27.803Z,4.20
2018-09-20T13:44:56.331Z,7.17
2018-09-20T13:47:24.735Z,4.15
2018-09-20T13:49:53.484Z,6.12
2018-09-20T13:52:21.972Z,3.35
2018-09-20T13:54:50.347Z,3.02
2018-09-20T13:57:18.873Z,5.05
2018-09-20T13:59:47.312Z,5.00
2018-09-20T14:02:15.662Z,4.75
2018-09-20T14:04:44.121Z,4.60
2018-09-20T14:07:12.526Z,7.60
2018-09-20T14:09:40.916Z,5.22
2018-09-20T14:12:09.284Z,4.20
2018-09-20T14:14:37.726Z,6.28
2018-09-20T14:17:06.251Z,4.62
2018-09-20T14:19:34.709Z,4.60
2018-09-20T14:22:03.089Z,4.10
2018-09-20T14:24:31.519Z,5.90
2018-09-20T14:26:59.908Z,4.95
2018-09-20T14:29:28.364Z,3.25
2018-09-20T14:31:56.759Z,6.15
2018-09-20T14:34:25.234Z,4.20
2018-09-20T14:36:53.642Z,4.25
2018-09-20T14:39:22.062Z,7.25
2018-09-20T14:41:50.461Z,6.95
2018-09-20T14:44:18.840Z,5.75
2018-09-20T14:46:47.276Z,4.22
2018-09-20T14:49:15.674Z,5.08
2018-09-20T14:51:44.130Z,7.10
2018-09-20T14:54:12.526Z,3.90
2018-09-20T14:56:40.919Z,4.90
2018-09-20T14:59:09.278Z,4.40
2018-09-20T15:01:37.716Z,5.72
2018-09-20T15:04:06.100Z,4.87
2018-09-20T15:06:34.510Z,3.55
2018-09-20T15:09:03.066Z,6.05
2018-09-20T15:11:31.528Z,3.52
2018-09-20T15:13:59.929Z,3.70
2018-09-20T15:16:28.316Z,8.80
2018-09-20T15:18:56.746Z,5.80
2018-09-20T15:21:25.185Z,3.90
2018-09-20T15:23:53.583Z,3.50
2018-09-20T15:26:22.000Z,3.85
2018-09-20T15:28:50.519Z,4.72
2018-09-20T15:31:18.933Z,6.40
2018-09-20T15:33:47.575Z,5.42
2018-09-20T15:36:15.990Z,3.47
2018-09-20T15:38:44.479Z,6.28
2018-09-20T15:41:12.936Z,4.22
2018-09-20T15:43:41.411Z,4.92
2018-09-20T15:46:09.906Z,6.67
2018-09-20T15:48:38.306Z,4.95
2018-09-20T15:51:06.695Z,4.92
2018-09-20T15:53:35.265Z,4.40
2018-09-20T15:56:03.630Z,6.08
2018-09-20T15:58:32.648Z,7.75
2018-09-20T16:01:01.155Z,6.50
2018-09-20T16:03:29.567Z,7.12
2018-09-20T16:05:57.994Z,4.67
2018-09-20T16:08:26.370Z,6.08
2018-09-20T16:10:55.102Z,4.22
2018-09-20T16:13:23.484Z,6.37
2018-09-20T16:15:51.909Z,6.42
2018-09-20T16:18:20.352Z,4.22
2018-09-20T16:20:48.764Z,4.65
2018-09-20T16:23:17.195Z,4.03
2018-09-20T16:25:45.566Z,5.60
2018-09-20T16:28:26.246Z,5.95
2018-09-20T16:31:36.463Z,6.10
2018-09-20T16:34:46.377Z,4.83
2018-09-20T16:38:52.802Z,6.10
2018-09-20T16:41:27.810Z,7.28
2018-09-20T16:43:56.230Z,4.10
2018-09-20T16:46:24.629Z,7.00
2018-09-20T16:48:53.075Z,5.95
2018-09-20T16:51:21.514Z,5.80
2018-09-20T16:53:50.683Z,8.03
2018-09-20T16:56:19.089Z,5.05
2018-09-20T16:58:49.263Z,7.05
2018-09-20T17:01:18.345Z,8.60
2018-09-20T17:06:35.674Z,6.50
2018-09-20T17:09:05.755Z,7.97
2018-09-20T17:11:34.170Z,5.30
2018-09-20T17:14:03.080Z,7.78
2018-09-20T17:16:31.615Z,5.85
2018-09-20T17:21:35.002Z,8.65
2018-09-20T17:24:03.606Z,6.40
2018-09-20T17:26:32.242Z,6.87
2018-09-20T17:29:00.679Z,5.83
2018-09-20T17:31:29.141Z,7.08
2018-09-20T17:33:57.639Z,6.78
2018-09-20T17:36:26.919Z,8.73
2018-09-20T17:38:56.448Z,6.12
2018-09-20T17:41:29.593Z,5.80
2018-09-20T17:44:04.558Z,8.28
2018-09-20T17:46:33.300Z,6.47
2018-09-20T17:49:02.029Z,7.53
2018-09-20T17:51:31.149Z,8.78
2018-09-20T17:54:00.396Z,7.67
2018-09-20T17:56:30.359Z,4.75
2018-09-20T17:58:59.609Z,8.50
2018-09-20T18:01:28.506Z,10.78
2018-09-20T18:03:57.958Z,9.60
2018-09-20T18:06:26.638Z,8.00
2018-09-20T18:08:55.155Z,9.20
2018-09-20T18:11:25.160Z,9.38
2018-09-20T18:13:53.737Z,8.13
2018-09-20T18:16:22.344Z,9.48
2018-09-20T18:18:50.851Z,7.80
2018-09-20T18:21:19.363Z,7.70
2018-09-20T18:23:49.156Z,21.12
2018-09-20T18:26:17.740Z,11.08
2018-09-20T18:28:46.467Z,6.80
2018-09-20T18:31:15.096Z,8.28
2018-09-20T18:33:43.780Z,7.78
2018-09-20T18:36:12.792Z,11.25
2018-09-20T18:38:41.991Z,10.70
2018-09-20T18:41:10.712Z,7.50
2018-09-20T18:43:39.191Z,9.63
2018-09-20T18:46:08.271Z,10.68
2018-09-20T18:48:37.031Z,11.75
2018-09-20T18:51:06.599Z,7.55
2018-09-20T18:53:35.156Z,8.45
2018-09-20T18:56:03.905Z,11.20
2018-09-20T18:58:32.542Z,11.28
2018-09-20T19:01:01.331Z,23.15
2018-09-20T19:03:29.925Z,12.63
2018-09-20T19:05:58.631Z,13.35
2018-09-20T19:08:27.262Z,12.53
2018-09-20T19:10:55.861Z,15.00
2018-09-20T19:13:24.480Z,13.72
2018-09-20T19:15:53.370Z,15.40
2018-09-20T19:18:22.174Z,11.12
2018-09-20T19:20:51.614Z,13.45
2018-09-20T19:23:20.618Z,11.53
2018-09-20T19:25:49.879Z,9.88
2018-09-20T19:28:18.582Z,12.13
2018-09-20T19:30:54.015Z,8.88
2018-09-20T19:33:22.799Z,9.90
2018-09-20T19:35:51.836Z,12.35
2018-09-20T19:38:21.161Z,11.45
2018-09-20T19:40:49.798Z,11.30
2018-09-20T19:43:18.496Z,12.70
2018-09-20T19:45:47.216Z,13.03
2018-09-20T19:48:16.037Z,9.73
2018-09-20T19:50:44.821Z,12.00
2018-09-20T19:53:14.993Z,11.38
2018-09-20T19:55:43.697Z,11.75
2018-09-20T19:58:12.407Z,16.97
2018-09-20T20:00:41.212Z,14.75
2018-09-20T20:03:09.930Z,15.78
2018-09-20T20:05:38.408Z,12.98
2018-09-20T20:08:08.146Z,9.85
2018-09-20T20:10:37.242Z,14.33
2018-09-20T20:13:05.926Z,13.13
2018-09-20T20:15:34.862Z,13.58
2018-09-20T20:18:04.014Z,11.08
2018-09-20T20:20:32.725Z,13.35
2018-09-20T20:23:01.523Z,12.93
2018-09-20T20:25:30.576Z,11.75
2018-09-20T20:27:59.893Z,12.13
2018-09-20T20:30:28.992Z,17.07
2018-09-20T20:32:58.715Z,15.93
2018-09-20T20:35:28.007Z,14.85
2018-09-20T20:37:56.982Z,18.30
2018-09-20T20:40:25.891Z,20.23
2018-09-20T20:42:54.988Z,14.13
2018-09-20T20:45:23.846Z,12.85
2018-09-20T20:47:52.461Z,15.78
2018-09-20T20:50:21.728Z,15.03
2018-09-20T20:52:50.644Z,15.43
2018-09-20T20:55:19.435Z,18.07
2018-09-20T20:57:48.332Z,18.65
2018-09-20T21:00:17.116Z,20.27
2018-09-20T21:02:46.632Z,18.42
2018-09-20T21:05:15.612Z,17.60
2018-09-20T21:07:44.465Z,16.25
2018-09-20T21:10:13.253Z,16.48
2018-09-20T21:12:41.924Z,16.65
2018-09-20T21:15:10.493Z,13.83
2018-09-20T21:17:39.499Z,13.45
2018-09-20T21:20:08.856Z,12.93
2018-09-20T21:22:37.845Z,17.92
2018-09-20T21:25:06.840Z,16.00
2018-09-20T21:27:35.896Z,13.03
2018-09-20T21:30:05.244Z,12.80
2018-09-20T21:45:37.331Z,15.43
2018-09-20T21:48:06.782Z,15.88
2018-09-20T21:50:35.572Z,16.90
2018-09-20T21:53:04.460Z,14.45
2018-09-20T21:55:34.937Z,13.55
2018-09-20T21:58:04.187Z,17.12
2018-09-20T22:00:32.949Z,17.02
2018-09-20T22:03:01.825Z,15.05
2018-09-20T22:05:31.880Z,14.45
2018-09-20T22:08:01.294Z,18.30
2018-09-20T22:10:30.958Z,23.07
2018-09-20T22:12:59.984Z,12.53
2018-09-20T22:15:30.000Z,13.45
2018-09-20T22:17:59.563Z,12.82
2018-09-20T22:20:30.852Z,11.63
2018-09-20T22:22:59.953Z,9.68
2018-09-20T22:25:28.910Z,9.08
2018-09-20T22:27:57.895Z,8.50
2018-09-20T22:30:26.821Z,10.00
2018-09-20T22:32:55.751Z,9.33
2018-09-20T22:35:25.629Z,9.73
2018-09-20T22:37:54.588Z,9.63
2018-09-20T22:40:23.510Z,10.60
2018-09-20T22:42:52.263Z,8.60
2018-09-20T22:45:21.391Z,9.48
2018-09-20T22:48:01.413Z,11.03
2018-09-20T22:50:39.881Z,10.80
2018-09-20T22:53:10.835Z,8.50
2018-09-20T22:55:41.887Z,7.90
2018-09-20T23:00:54.988Z,8.10
2018-09-20T23:03:24.967Z,9.18
2018-09-20T23:06:08.379Z,9.35
2018-09-20T23:08:40.355Z,12.58
2018-09-20T23:11:09.350Z,9.28
2018-09-20T23:13:40.083Z,10.25
2018-09-20T23:16:11.253Z,9.20
2018-09-20T23:18:40.422Z,9.83
2018-09-20T23:21:14.539Z,10.15
2018-09-20T23:23:47.549Z,11.35
2018-09-20T23:26:16.640Z,7.10
2018-09-20T23:28:46.903Z,9.83
2018-09-20T23:31:16.883Z,8.53
2018-09-20T23:33:46.115Z,10.68
2018-09-20T23:36:15.039Z,7.30
2018-09-20T23:38:44.177Z,10.82
2018-09-20T23:41:16.889Z,10.85
2018-09-20T23:43:49.907Z,9.35
2018-09-20T23:46:22.107Z,8.93
2018-09-20T23:48:51.374Z,9.93
2018-09-20T23:51:22.551Z,9.33
2018-09-20T23:53:57.451Z,9.33
2018-09-20T23:56:27.725Z,8.05
2018-09-20T23:58:58.600Z,9.98
